sensor_id;sensor_type;location;lat;lon;timestamp;pressure;altitude;pressure_sealevel;temperature;humidity
8653;BME280;4364;52.426;9.424;2024-03-22T00:01:46;101562.31;;;8.75;100.00
8653;BME280;4364;52.426;9.424;2024-03-22T00:04:12;101565.72;;;8.82;100.00
8653;BME280;4364;52.426;9.424;2024-03-22T00:06:39;101563.50;;;8.79;100.00
8653;BME280;4364;52.426;9.424;2024-03-22T00:09:05;101569.50;;;8.81;100.00
8653;BME280;4364;52.426;9.424;2024-03-22T00:11:30;101563.44;;;8.91;100.00
8653;BME280;4364;52.426;9.424;2024-03-22T00:13:56;101567.03;;;8.97;100.00
8653;BME280;4364;52.426;9.424;2024-03-22T00:16:21;101560.00;;;8.96;100.00
8653;BME280;4364;52.426;9.424;2024-03-22T00:18:47;101552.19;;;8.99;100.00
8653;BME280;4364;52.426;9.424;2024-03-22T00:21:13;101554.81;;;8.94;100.00
8653;BME280;4364;52.426;9.424;2024-03-22T00:23:39;101556.97;;;9.09;100.00
8653;BME280;4364;52.426;9.424;2024-03-22T00:26:05;101548.75;;;9.04;100.00
8653;BME280;4364;52.426;9.424;2024-03-22T00:28:30;101548.22;;;9.07;100.00
8653;BME280;4364;52.426;9.424;2024-03-22T00:30:56;101535.41;;;9.02;100.00
8653;BME280;4364;52.426;9.424;2024-03-22T00:33:22;101538.63;;;8.99;100.00
8653;BME280;4364;52.426;9.424;2024-03-22T00:35:47;101536.06;;;9.09;100.00
8653;BME280;4364;52.426;9.424;2024-03-22T00:38:13;101529.75;;;9.04;100.00
8653;BME280;4364;52.426;9.424;2024-03-22T00:40:39;101529.41;;;9.17;100.00
8653;BME280;4364;52.426;9.424;2024-03-22T00:43:04;101524.41;;;9.09;100.00
8653;BME280;4364;52.426;9.424;2024-03-22T00:45:31;101516.09;;;9.16;100.00
8653;BME280;4364;52.426;9.424;2024-03-22T00:47:57;101520.19;;;9.18;100.00
8653;BME280;4364;52.426;9.424;2024-03-22T00:50:22;101520.19;;;9.18;100.00
8653;BME280;4364;52.426;9.424;2024-03-22T00:52:50;101523.16;;;9.17;100.00
8653;BME280;4364;52.426;9.424;2024-03-22T00:55:16;101522.16;;;9.23;100.00
8653;BME280;4364;52.426;9.424;2024-03-22T00:57:41;101517.88;;;9.10;100.00
8653;BME280;4364;52.426;9.424;2024-03-22T01:00:07;101526.63;;;9.12;100.00
8653;BME280;4364;52.426;9.424;2024-03-22T01:02:33;101514.50;;;9.20;100.00
8653;BME280;4364;52.426;9.424;2024-03-22T01:04:59;101514.66;;;9.30;100.00
8653;BME280;4364;52.426;9.424;2024-03-22T01:07:26;101514.28;;;9.21;100.00
8653;BME280;4364;52.426;9.424;2024-03-22T01:09:52;101519.38;;;9.18;100.00
8653;BME280;4364;52.426;9.424;2024-03-22T01:12:17;101522.41;;;9.21;100.00
8653;BME280;4364;52.426;9.424;2024-03-22T01:14:43;101512.72;;;9.25;100.00
8653;BME280;4364;52.426;9.424;2024-03-22T01:17:09;101507.13;;;9.32;100.00
8653;BME280;4364;52.426;9.424;2024-03-22T01:19:35;101511.56;;;9.21;100.00
8653;BME280;4364;52.426;9.424;2024-03-22T01:22:02;101497.19;;;9.21;100.00
8653;BME280;4364;52.426;9.424;2024-03-22T01:24:28;101492.81;;;9.20;100.00
8653;BME280;4364;52.426;9.424;2024-03-22T01:26:53;101482.53;;;9.22;100.00
8653;BME280;4364;52.426;9.424;2024-03-22T01:29:19;101482.28;;;9.23;100.00
8653;BME280;4364;52.426;9.424;2024-03-22T01:31:44;101478.88;;;9.33;100.00
8653;BME280;4364;52.426;9.424;2024-03-22T01:34:10;101486.22;;;9.33;100.00
8653;BME280;4364;52.426;9.424;2024-03-22T01:36:36;101472.59;;;9.27;100.00
8653;BME280;4364;52.426;9.424;2024-03-22T01:39:01;101461.47;;;9.29;100.00
8653;BME280;4364;52.426;9.424;2024-03-22T01:41:27;101459.06;;;9.33;100.00
8653;BME280;4364;52.426;9.424;2024-03-22T01:43:53;101458.00;;;9.34;100.00
8653;BME280;4364;52.426;9.424;2024-03-22T01:46:18;101445.69;;;9.26;100.00
8653;BME280;4364;52.426;9.424;2024-03-22T01:48:44;101449.28;;;9.32;100.00
8653;BME280;4364;52.426;9.424;2024-03-22T01:51:10;101458.41;;;9.42;100.00
8653;BME280;4364;52.426;9.424;2024-03-22T01:53:37;101456.75;;;9.41;100.00
8653;BME280;4364;52.426;9.424;2024-03-22T01:56:03;101444.75;;;9.37;100.00
8653;BME280;4364;52.426;9.424;2024-03-22T01:58:28;101441.13;;;9.32;100.00
8653;BME280;4364;52.426;9.424;2024-03-22T02:00:54;101440.78;;;9.45;100.00
8653;BME280;4364;52.426;9.424;2024-03-22T02:03:20;101425.25;;;9.40;100.00
8653;BME280;4364;52.426;9.424;2024-03-22T02:05:45;101417.94;;;9.41;100.00
8653;BME280;4364;52.426;9.424;2024-03-22T02:08:11;101416.78;;;9.37;100.00
8653;BME280;4364;52.426;9.424;2024-03-22T02:10:36;101413.00;;;9.38;100.00
8653;BME280;4364;52.426;9.424;2024-03-22T02:13:02;101400.81;;;9.40;100.00
8653;BME280;4364;52.426;9.424;2024-03-22T02:15:28;101399.56;;;9.48;100.00
8653;BME280;4364;52.426;9.424;2024-03-22T02:17:54;101396.97;;;9.36;100.00
8653;BME280;4364;52.426;9.424;2024-03-22T02:20:19;101392.84;;;9.34;100.00
8653;BME280;4364;52.426;9.424;2024-03-22T02:22:45;101401.41;;;9.42;100.00
8653;BME280;4364;52.426;9.424;2024-03-22T02:25:10;101393.19;;;9.37;100.00
8653;BME280;4364;52.426;9.424;2024-03-22T02:27:38;101377.72;;;9.38;100.00
8653;BME280;4364;52.426;9.424;2024-03-22T02:30:04;101381.25;;;9.38;100.00
8653;BME280;4364;52.426;9.424;2024-03-22T02:32:31;101381.25;;;9.38;100.00
8653;BME280;4364;52.426;9.424;2024-03-22T02:34:56;101370.00;;;9.30;100.00
8653;BME280;4364;52.426;9.424;2024-03-22T02:37:22;101355.94;;;9.33;100.00
8653;BME280;4364;52.426;9.424;2024-03-22T02:39:47;101353.78;;;9.35;100.00
8653;BME280;4364;52.426;9.424;2024-03-22T02:42:13;101356.56;;;9.40;100.00
8653;BME280;4364;52.426;9.424;2024-03-22T02:44:38;101359.34;;;9.45;100.00
8653;BME280;4364;52.426;9.424;2024-03-22T02:47:11;101364.66;;;9.35;100.00
8653;BME280;4364;52.426;9.424;2024-03-22T02:49:38;101366.16;;;9.48;100.00
8653;BME280;4364;52.426;9.424;2024-03-22T02:52:04;101347.97;;;9.48;100.00
8653;BME280;4364;52.426;9.424;2024-03-22T02:54:30;101347.66;;;9.44;100.00
8653;BME280;4364;52.426;9.424;2024-03-22T02:56:55;101343.81;;;9.62;100.00
8653;BME280;4364;52.426;9.424;2024-03-22T02:59:21;101339.69;;;9.60;100.00
8653;BME280;4364;52.426;9.424;2024-03-22T03:01:47;101345.88;;;9.55;100.00
8653;BME280;4364;52.426;9.424;2024-03-22T03:04:12;101334.84;;;9.40;100.00
8653;BME280;4364;52.426;9.424;2024-03-22T03:06:38;101339.34;;;9.51;100.00
8653;BME280;4364;52.426;9.424;2024-03-22T03:09:03;101334.41;;;9.48;100.00
8653;BME280;4364;52.426;9.424;2024-03-22T03:11:33;101321.09;;;9.46;100.00
8653;BME280;4364;52.426;9.424;2024-03-22T03:13:58;101324.75;;;9.57;100.00
8653;BME280;4364;52.426;9.424;2024-03-22T03:16:24;101325.75;;;9.51;100.00
8653;BME280;4364;52.426;9.424;2024-03-22T03:18:49;101323.09;;;9.56;100.00
8653;BME280;4364;52.426;9.424;2024-03-22T03:21:15;101311.03;;;9.47;100.00
8653;BME280;4364;52.426;9.424;2024-03-22T03:23:41;101308.22;;;9.37;100.00
8653;BME280;4364;52.426;9.424;2024-03-22T03:26:06;101299.81;;;9.38;100.00
8653;BME280;4364;52.426;9.424;2024-03-22T03:28:33;101298.00;;;9.44;100.00
8653;BME280;4364;52.426;9.424;2024-03-22T03:30:59;101296.03;;;9.39;100.00
8653;BME280;4364;52.426;9.424;2024-03-22T03:33:24;101301.28;;;9.46;100.00
8653;BME280;4364;52.426;9.424;2024-03-22T03:35:50;101290.84;;;9.38;100.00
8653;BME280;4364;52.426;9.424;2024-03-22T03:38:15;101281.38;;;9.40;100.00
8653;BME280;4364;52.426;9.424;2024-03-22T03:40:41;101284.03;;;9.35;100.00
8653;BME280;4364;52.426;9.424;2024-03-22T03:43:07;101272.88;;;9.32;100.00
8653;BME280;4364;52.426;9.424;2024-03-22T03:45:36;101281.75;;;9.27;100.00
8653;BME280;4364;52.426;9.424;2024-03-22T03:48:02;101277.19;;;9.27;100.00
8653;BME280;4364;52.426;9.424;2024-03-22T03:50:28;101278.78;;;9.28;100.00
8653;BME280;4364;52.426;9.424;2024-03-22T03:52:53;101269.69;;;9.40;100.00
8653;BME280;4364;52.426;9.424;2024-03-22T03:55:19;101263.97;;;9.36;100.00
8653;BME280;4364;52.426;9.424;2024-03-22T03:57:44;101261.34;;;9.46;100.00
8653;BME280;4364;52.426;9.424;2024-03-22T04:00:10;101263.81;;;9.48;100.00
8653;BME280;4364;52.426;9.424;2024-03-22T04:02:36;101250.69;;;9.40;100.00
8653;BME280;4364;52.426;9.424;2024-03-22T04:05:02;101258.09;;;9.44;100.00
8653;BME280;4364;52.426;9.424;2024-03-22T04:07:27;101243.38;;;9.40;100.00
8653;BME280;4364;52.426;9.424;2024-03-22T04:09:54;101238.22;;;9.39;100.00
8653;BME280;4364;52.426;9.424;2024-03-22T04:12:20;101237.19;;;9.45;100.00
8653;BME280;4364;52.426;9.424;2024-03-22T04:14:45;101233.72;;;9.50;100.00
8653;BME280;4364;52.426;9.424;2024-03-22T04:17:11;101223.41;;;9.52;100.00
8653;BME280;4364;52.426;9.424;2024-03-22T04:19:37;101224.25;;;9.52;100.00
8653;BME280;4364;52.426;9.424;2024-03-22T04:22:03;101222.84;;;9.50;100.00
8653;BME280;4364;52.426;9.424;2024-03-22T04:24:29;101218.19;;;9.45;100.00
8653;BME280;4364;52.426;9.424;2024-03-22T04:26:55;101216.75;;;9.37;100.00
8653;BME280;4364;52.426;9.424;2024-03-22T04:29:20;101207.81;;;9.42;100.00
8653;BME280;4364;52.426;9.424;2024-03-22T04:31:46;101202.53;;;9.52;100.00
8653;BME280;4364;52.426;9.424;2024-03-22T04:34:11;101193.78;;;9.50;100.00
8653;BME280;4364;52.426;9.424;2024-03-22T04:36:37;101208.72;;;9.48;100.00
8653;BME280;4364;52.426;9.424;2024-03-22T04:39:03;101198.81;;;9.63;100.00
8653;BME280;4364;52.426;9.424;2024-03-22T04:41:29;101206.44;;;9.67;100.00
8653;BME280;4364;52.426;9.424;2024-03-22T04:43:54;101191.75;;;9.62;100.00
8653;BME280;4364;52.426;9.424;2024-03-22T04:46:20;101192.25;;;9.59;100.00
8653;BME280;4364;52.426;9.424;2024-03-22T04:48:46;101197.41;;;9.56;100.00
8653;BME280;4364;52.426;9.424;2024-03-22T04:51:11;101193.03;;;9.55;100.00
8653;BME280;4364;52.426;9.424;2024-03-22T04:53:37;101187.34;;;9.56;100.00
8653;BME280;4364;52.426;9.424;2024-03-22T04:56:03;101186.75;;;9.49;100.00
8653;BME280;4364;52.426;9.424;2024-03-22T04:58:29;101181.06;;;9.51;100.00
8653;BME280;4364;52.426;9.424;2024-03-22T05:00:59;101182.69;;;9.52;100.00
8653;BME280;4364;52.426;9.424;2024-03-22T05:03:24;101175.97;;;9.59;100.00
8653;BME280;4364;52.426;9.424;2024-03-22T05:05:50;101182.00;;;9.67;100.00
8653;BME280;4364;52.426;9.424;2024-03-22T05:08:16;101176.53;;;9.61;100.00
8653;BME280;4364;52.426;9.424;2024-03-22T05:10:41;101174.41;;;9.69;100.00
8653;BME280;4364;52.426;9.424;2024-03-22T05:13:07;101181.69;;;9.63;100.00
8653;BME280;4364;52.426;9.424;2024-03-22T05:15:33;101167.06;;;9.64;100.00
8653;BME280;4364;52.426;9.424;2024-03-22T05:17:59;101157.03;;;9.70;100.00
8653;BME280;4364;52.426;9.424;2024-03-22T05:20:25;101166.06;;;9.80;100.00
8653;BME280;4364;52.426;9.424;2024-03-22T05:22:51;101166.59;;;9.72;100.00
8653;BME280;4364;52.426;9.424;2024-03-22T05:25:18;101157.38;;;9.78;100.00
8653;BME280;4364;52.426;9.424;2024-03-22T05:27:43;101156.53;;;9.73;100.00
8653;BME280;4364;52.426;9.424;2024-03-22T05:30:10;101154.66;;;9.78;100.00
8653;BME280;4364;52.426;9.424;2024-03-22T05:32:36;101145.19;;;9.81;100.00
8653;BME280;4364;52.426;9.424;2024-03-22T05:35:04;101147.59;;;9.77;100.00
8653;BME280;4364;52.426;9.424;2024-03-22T05:37:30;101144.63;;;9.79;100.00
8653;BME280;4364;52.426;9.424;2024-03-22T05:39:56;101136.50;;;9.84;100.00
8653;BME280;4364;52.426;9.424;2024-03-22T05:42:21;101125.03;;;9.77;100.00
8653;BME280;4364;52.426;9.424;2024-03-22T05:44:47;101134.09;;;9.88;100.00
8653;BME280;4364;52.426;9.424;2024-03-22T05:47:13;101136.50;;;9.84;100.00
8653;BME280;4364;52.426;9.424;2024-03-22T05:49:38;101140.38;;;9.93;100.00
8653;BME280;4364;52.426;9.424;2024-03-22T05:52:04;101137.88;;;9.87;100.00
8653;BME280;4364;52.426;9.424;2024-03-22T05:54:30;101133.25;;;9.87;100.00
8653;BME280;4364;52.426;9.424;2024-03-22T05:56:55;101139.56;;;9.93;100.00
8653;BME280;4364;52.426;9.424;2024-03-22T05:59:21;101135.19;;;9.92;100.00
8653;BME280;4364;52.426;9.424;2024-03-22T06:01:47;101138.16;;;9.90;100.00
8653;BME280;4364;52.426;9.424;2024-03-22T06:04:12;101137.66;;;9.93;100.00
8653;BME280;4364;52.426;9.424;2024-03-22T06:06:38;101132.53;;;10.02;100.00
8653;BME280;4364;52.426;9.424;2024-03-22T06:09:04;101129.28;;;10.00;100.00
8653;BME280;4364;52.426;9.424;2024-03-22T06:11:34;101120.03;;;10.01;100.00
8653;BME280;4364;52.426;9.424;2024-03-22T06:14:00;101125.19;;;9.97;100.00
8653;BME280;4364;52.426;9.424;2024-03-22T06:16:25;101117.66;;;10.10;100.00
8653;BME280;4364;52.426;9.424;2024-03-22T06:18:52;101117.34;;;10.06;100.00
8653;BME280;4364;52.426;9.424;2024-03-22T06:21:17;101117.66;;;10.15;100.00
8653;BME280;4364;52.426;9.424;2024-03-22T06:23:51;101108.44;;;10.16;100.00
8653;BME280;4364;52.426;9.424;2024-03-22T06:26:17;101110.09;;;10.22;100.00
8653;BME280;4364;52.426;9.424;2024-03-22T06:28:43;101117.72;;;10.25;100.00
8653;BME280;4364;52.426;9.424;2024-03-22T06:31:08;101123.44;;;10.29;100.00
8653;BME280;4364;52.426;9.424;2024-03-22T06:33:34;101124.63;;;10.38;100.00
8653;BME280;4364;52.426;9.424;2024-03-22T06:36:00;101125.41;;;10.38;100.00
8653;BME280;4364;52.426;9.424;2024-03-22T06:38:26;101122.94;;;10.32;100.00
8653;BME280;4364;52.426;9.424;2024-03-22T06:40:52;101121.56;;;10.29;100.00
8653;BME280;4364;52.426;9.424;2024-03-22T06:43:17;101124.81;;;10.26;100.00
8653;BME280;4364;52.426;9.424;2024-03-22T06:45:43;101113.75;;;10.38;100.00
8653;BME280;4364;52.426;9.424;2024-03-22T06:48:09;101116.22;;;10.45;100.00
8653;BME280;4364;52.426;9.424;2024-03-22T06:50:34;101105.06;;;10.46;100.00
8653;BME280;4364;52.426;9.424;2024-03-22T06:53:00;101099.94;;;10.55;100.00
8653;BME280;4364;52.426;9.424;2024-03-22T06:55:26;101107.56;;;10.58;100.00
8653;BME280;4364;52.426;9.424;2024-03-22T06:57:52;101099.13;;;10.60;100.00
8653;BME280;4364;52.426;9.424;2024-03-22T07:00:18;101085.81;;;10.63;100.00
8653;BME280;4364;52.426;9.424;2024-03-22T07:02:45;101073.88;;;10.64;100.00
8653;BME280;4364;52.426;9.424;2024-03-22T07:05:10;101077.13;;;10.71;100.00
8653;BME280;4364;52.426;9.424;2024-03-22T07:07:37;101076.59;;;10.64;100.00
8653;BME280;4364;52.426;9.424;2024-03-22T07:10:04;101076.59;;;10.64;100.00
8653;BME280;4364;52.426;9.424;2024-03-22T07:12:33;101076.28;;;10.61;100.00
8653;BME280;4364;52.426;9.424;2024-03-22T07:15:00;101072.50;;;10.67;100.00
8653;BME280;4364;52.426;9.424;2024-03-22T07:17:28;101074.94;;;10.68;100.00
8653;BME280;4364;52.426;9.424;2024-03-22T07:19:54;101074.94;;;10.68;100.00
8653;BME280;4364;52.426;9.424;2024-03-22T07:22:20;101069.81;;;10.82;100.00
8653;BME280;4364;52.426;9.424;2024-03-22T07:24:46;101063.81;;;10.75;100.00
8653;BME280;4364;52.426;9.424;2024-03-22T07:27:13;101073.06;;;10.79;100.00
8653;BME280;4364;52.426;9.424;2024-03-22T07:29:42;101060.56;;;10.78;100.00
8653;BME280;4364;52.426;9.424;2024-03-22T07:32:07;101076.09;;;10.83;100.00
8653;BME280;4364;52.426;9.424;2024-03-22T07:34:33;101069.28;;;10.90;100.00
8653;BME280;4364;52.426;9.424;2024-03-22T07:36:59;101067.09;;;10.87;100.00
8653;BME280;4364;52.426;9.424;2024-03-22T07:39:25;101077.97;;;10.92;100.00
8653;BME280;4364;52.426;9.424;2024-03-22T07:41:50;101065.22;;;10.98;100.00
8653;BME280;4364;52.426;9.424;2024-03-22T07:44:16;101069.00;;;10.92;100.00
8653;BME280;4364;52.426;9.424;2024-03-22T07:46:50;101070.38;;;10.84;100.00
8653;BME280;4364;52.426;9.424;2024-03-22T07:49:16;101071.72;;;10.97;100.00
8653;BME280;4364;52.426;9.424;2024-03-22T07:51:42;101074.72;;;11.01;100.00
8653;BME280;4364;52.426;9.424;2024-03-22T07:54:07;101062.22;;;11.05;100.00
8653;BME280;4364;52.426;9.424;2024-03-22T07:56:33;101069.28;;;11.01;100.00
8653;BME280;4364;52.426;9.424;2024-03-22T07:58:59;101067.66;;;11.00;100.00
8653;BME280;4364;52.426;9.424;2024-03-22T08:01:26;101059.25;;;11.06;100.00
8653;BME280;4364;52.426;9.424;2024-03-22T08:03:52;101065.50;;;11.12;100.00
8653;BME280;4364;52.426;9.424;2024-03-22T08:06:19;101054.88;;;11.26;100.00
8653;BME280;4364;52.426;9.424;2024-03-22T08:08:45;101047.00;;;11.29;100.00
8653;BME280;4364;52.426;9.424;2024-03-22T08:11:10;101046.16;;;11.19;100.00
8653;BME280;4364;52.426;9.424;2024-03-22T08:13:36;101045.09;;;11.15;100.00
8653;BME280;4364;52.426;9.424;2024-03-22T08:16:03;101050.81;;;11.23;100.00
8653;BME280;4364;52.426;9.424;2024-03-22T08:18:29;101054.88;;;11.21;100.00
8653;BME280;4364;52.426;9.424;2024-03-22T08:20:55;101058.13;;;11.12;100.00
8653;BME280;4364;52.426;9.424;2024-03-22T08:23:21;101054.88;;;11.21;100.00
8653;BME280;4364;52.426;9.424;2024-03-22T08:25:48;101054.88;;;11.21;100.00
8653;BME280;4364;52.426;9.424;2024-03-22T08:28:13;101048.34;;;11.17;100.00
8653;BME280;4364;52.426;9.424;2024-03-22T08:30:39;101044.25;;;11.19;100.00
8653;BME280;4364;52.426;9.424;2024-03-22T08:33:06;101051.34;;;11.25;100.00
8653;BME280;4364;52.426;9.424;2024-03-22T08:35:31;101044.81;;;11.31;100.00
8653;BME280;4364;52.426;9.424;2024-03-22T08:37:57;101051.34;;;11.20;100.00
8653;BME280;4364;52.426;9.424;2024-03-22T08:40:24;101059.25;;;11.22;100.00
8653;BME280;4364;52.426;9.424;2024-03-22T08:42:50;101037.72;;;11.20;100.00
8653;BME280;4364;52.426;9.424;2024-03-22T08:45:17;101031.75;;;11.28;100.00
8653;BME280;4364;52.426;9.424;2024-03-22T08:47:43;101032.56;;;11.19;100.00
8653;BME280;4364;52.426;9.424;2024-03-22T08:50:11;101018.41;;;11.11;100.00
8653;BME280;4364;52.426;9.424;2024-03-22T08:52:38;101014.88;;;11.21;100.00
8653;BME280;4364;52.426;9.424;2024-03-22T08:55:04;101019.50;;;11.10;100.00
8653;BME280;4364;52.426;9.424;2024-03-22T08:57:33;101018.69;;;11.05;100.00
8653;BME280;4364;52.426;9.424;2024-03-22T08:59:59;101011.34;;;11.05;100.00
8653;BME280;4364;52.426;9.424;2024-03-22T09:02:25;101009.97;;;11.08;100.00
8653;BME280;4364;52.426;9.424;2024-03-22T09:04:51;100999.09;;;11.08;100.00
8653;BME280;4364;52.426;9.424;2024-03-22T09:07:17;101010.50;;;11.15;100.00
8653;BME280;4364;52.426;9.424;2024-03-22T09:09:43;101002.34;;;11.15;100.00
8653;BME280;4364;52.426;9.424;2024-03-22T09:12:09;101004.53;;;11.18;100.00
8653;BME280;4364;52.426;9.424;2024-03-22T09:14:35;101004.78;;;11.22;100.00
8653;BME280;4364;52.426;9.424;2024-03-22T09:17:01;101001.81;;;11.23;100.00
8653;BME280;4364;52.426;9.424;2024-03-22T09:19:27;100994.19;;;11.20;100.00
8653;BME280;4364;52.426;9.424;2024-03-22T09:21:52;100985.19;;;11.35;100.00
8653;BME280;4364;52.426;9.424;2024-03-22T09:24:19;100983.81;;;11.32;100.00
8653;BME280;4364;52.426;9.424;2024-03-22T09:26:45;100975.94;;;11.36;100.00
8653;BME280;4364;52.426;9.424;2024-03-22T09:29:13;100975.06;;;11.41;100.00
8653;BME280;4364;52.426;9.424;2024-03-22T09:31:39;100973.16;;;11.52;100.00
8653;BME280;4364;52.426;9.424;2024-03-22T09:34:05;100964.72;;;11.53;100.00
8653;BME280;4364;52.426;9.424;2024-03-22T09:36:31;100966.03;;;11.61;100.00
8653;BME280;4364;52.426;9.424;2024-03-22T09:39:01;100975.81;;;11.72;100.00
8653;BME280;4364;52.426;9.424;2024-03-22T09:41:27;100972.00;;;11.78;100.00
8653;BME280;4364;52.426;9.424;2024-03-22T09:43:57;100977.72;;;11.77;100.00
8653;BME280;4364;52.426;9.424;2024-03-22T09:46:26;100971.16;;;11.83;100.00
8653;BME280;4364;52.426;9.424;2024-03-22T09:48:54;100963.25;;;11.86;99.47
8653;BME280;4364;52.426;9.424;2024-03-22T09:51:20;100963.50;;;11.90;97.60
8653;BME280;4364;52.426;9.424;2024-03-22T09:53:52;100961.31;;;11.87;98.05
8653;BME280;4364;52.426;9.424;2024-03-22T09:56:21;100962.72;;;11.84;99.13
8653;BME280;4364;52.426;9.424;2024-03-22T09:58:47;100957.00;;;11.91;99.19
8653;BME280;4364;52.426;9.424;2024-03-22T10:01:13;100953.69;;;11.94;98.06
8653;BME280;4364;52.426;9.424;2024-03-22T10:03:39;100951.25;;;11.93;97.29
8653;BME280;4364;52.426;9.424;2024-03-22T10:06:06;100946.31;;;12.00;97.77
8653;BME280;4364;52.426;9.424;2024-03-22T10:08:33;100952.03;;;11.98;97.74
8653;BME280;4364;52.426;9.424;2024-03-22T10:11:02;100961.59;;;11.96;98.65
8653;BME280;4364;52.426;9.424;2024-03-22T10:13:28;100964.00;;;12.02;96.85
8653;BME280;4364;52.426;9.424;2024-03-22T10:15:56;100965.13;;;12.01;96.96
8653;BME280;4364;52.426;9.424;2024-03-22T10:18:22;100967.56;;;12.03;97.42
8653;BME280;4364;52.426;9.424;2024-03-22T10:20:59;100950.66;;;12.01;99.53
8653;BME280;4364;52.426;9.424;2024-03-22T10:23:26;100951.50;;;12.01;99.64
8653;BME280;4364;52.426;9.424;2024-03-22T10:25:52;100950.19;;;11.78;100.00
8653;BME280;4364;52.426;9.424;2024-03-22T10:28:17;100948.53;;;11.82;100.00
8653;BME280;4364;52.426;9.424;2024-03-22T10:30:44;100939.25;;;11.94;100.00
8653;BME280;4364;52.426;9.424;2024-03-22T10:33:10;100932.69;;;12.00;100.00
8653;BME280;4364;52.426;9.424;2024-03-22T10:35:36;100932.13;;;12.03;100.00
8653;BME280;4364;52.426;9.424;2024-03-22T10:38:02;100935.63;;;12.09;100.00
8653;BME280;4364;52.426;9.424;2024-03-22T10:40:29;100931.00;;;12.09;100.00
8653;BME280;4364;52.426;9.424;2024-03-22T10:42:55;100936.97;;;12.16;100.00
8653;BME280;4364;52.426;9.424;2024-03-22T10:45:23;100932.25;;;12.27;100.00
8653;BME280;4364;52.426;9.424;2024-03-22T10:47:53;100928.69;;;12.32;99.58
8653;BME280;4364;52.426;9.424;2024-03-22T10:50:22;100929.72;;;12.36;97.76
8653;BME280;4364;52.426;9.424;2024-03-22T10:52:56;100931.56;;;12.46;95.90
8653;BME280;4364;52.426;9.424;2024-03-22T10:55:30;100934.34;;;12.40;94.63
8653;BME280;4364;52.426;9.424;2024-03-22T10:57:58;100923.13;;;12.47;95.25
8653;BME280;4364;52.426;9.424;2024-03-22T11:00:32;100935.63;;;12.53;94.84
8653;BME280;4364;52.426;9.424;2024-03-22T11:02:59;100918.41;;;12.58;93.03
8653;BME280;4364;52.426;9.424;2024-03-22T11:05:28;100921.38;;;12.62;92.59
8653;BME280;4364;52.426;9.424;2024-03-22T11:08:04;100923.69;;;12.78;92.48
8653;BME280;4364;52.426;9.424;2024-03-22T11:10:31;100910.22;;;12.87;93.19
8653;BME280;4364;52.426;9.424;2024-03-22T11:13:04;100910.84;;;12.79;91.49
8653;BME280;4364;52.426;9.424;2024-03-22T11:15:31;100913.59;;;12.79;91.77
8653;BME280;4364;52.426;9.424;2024-03-22T11:17:57;100910.03;;;12.78;91.03
8653;BME280;4364;52.426;9.424;2024-03-22T11:20:23;100904.06;;;12.76;91.37
8653;BME280;4364;52.426;9.424;2024-03-22T11:22:51;100912.66;;;12.59;90.98
8653;BME280;4364;52.426;9.424;2024-03-22T11:25:17;100899.28;;;12.63;91.14
8653;BME280;4364;52.426;9.424;2024-03-22T11:27:43;100902.25;;;12.67;91.46
8653;BME280;4364;52.426;9.424;2024-03-22T11:30:09;100899.84;;;12.60;90.88
8653;BME280;4364;52.426;9.424;2024-03-22T11:32:35;100893.25;;;12.61;90.22
8653;BME280;4364;52.426;9.424;2024-03-22T11:35:12;100897.44;;;12.53;90.57
8653;BME280;4364;52.426;9.424;2024-03-22T11:37:38;100891.75;;;12.50;90.81
8653;BME280;4364;52.426;9.424;2024-03-22T11:40:05;100902.69;;;12.45;90.50
8653;BME280;4364;52.426;9.424;2024-03-22T11:42:35;100899.09;;;12.49;90.80
8653;BME280;4364;52.426;9.424;2024-03-22T11:45:01;100897.81;;;12.41;90.86
8653;BME280;4364;52.426;9.424;2024-03-22T11:47:28;100893.19;;;12.37;90.61
8653;BME280;4364;52.426;9.424;2024-03-22T11:49:56;100896.16;;;12.40;90.75
8653;BME280;4364;52.426;9.424;2024-03-22T11:52:25;100898.94;;;12.35;91.37
8653;BME280;4364;52.426;9.424;2024-03-22T11:54:51;100901.91;;;12.39;91.65
8653;BME280;4364;52.426;9.424;2024-03-22T11:57:20;100890.28;;;12.28;91.40
8653;BME280;4364;52.426;9.424;2024-03-22T11:59:45;100886.19;;;12.26;91.55
8653;BME280;4364;52.426;9.424;2024-03-22T12:02:11;100887.78;;;12.32;91.64
8653;BME280;4364;52.426;9.424;2024-03-22T12:04:49;100880.16;;;12.29;91.92
8653;BME280;4364;52.426;9.424;2024-03-22T12:07:17;100876.66;;;12.23;92.02
8653;BME280;4364;52.426;9.424;2024-03-22T12:09:44;100878.53;;;12.28;92.67
8653;BME280;4364;52.426;9.424;2024-03-22T12:12:11;100878.56;;;12.22;91.84
8653;BME280;4364;52.426;9.424;2024-03-22T12:14:39;100867.94;;;12.21;92.63
8653;BME280;4364;52.426;9.424;2024-03-22T12:17:06;100868.22;;;12.19;92.31
8653;BME280;4364;52.426;9.424;2024-03-22T12:19:32;100866.66;;;12.13;92.99
8653;BME280;4364;52.426;9.424;2024-03-22T12:21:59;100872.88;;;12.19;93.05
8653;BME280;4364;52.426;9.424;2024-03-22T12:24:25;100868.53;;;12.13;94.24
8653;BME280;4364;52.426;9.424;2024-03-22T12:26:52;100879.44;;;12.13;94.29
8653;BME280;4364;52.426;9.424;2024-03-22T12:29:20;100873.19;;;12.12;93.57
8653;BME280;4364;52.426;9.424;2024-03-22T12:31:47;100873.38;;;12.21;93.65
8653;BME280;4364;52.426;9.424;2024-03-22T12:34:13;100868.84;;;12.11;94.30
8653;BME280;4364;52.426;9.424;2024-03-22T12:36:38;100863.41;;;12.06;94.72
8653;BME280;4364;52.426;9.424;2024-03-22T12:39:04;100854.41;;;12.05;95.26
8653;BME280;4364;52.426;9.424;2024-03-22T12:41:31;100862.34;;;12.02;94.49
8653;BME280;4364;52.426;9.424;2024-03-22T12:43:57;100868.09;;;12.00;94.65
8653;BME280;4364;52.426;9.424;2024-03-22T12:46:23;100879.59;;;11.92;95.06
8653;BME280;4364;52.426;9.424;2024-03-22T12:48:49;100868.94;;;11.91;95.46
8653;BME280;4364;52.426;9.424;2024-03-22T12:51:16;100876.84;;;11.87;96.18
8653;BME280;4364;52.426;9.424;2024-03-22T12:53:43;100873.63;;;11.80;96.54
8653;BME280;4364;52.426;9.424;2024-03-22T12:56:09;100870.38;;;11.73;97.66
8653;BME280;4364;52.426;9.424;2024-03-22T12:58:36;100873.69;;;11.70;98.13
8653;BME280;4364;52.426;9.424;2024-03-22T13:01:06;100870.44;;;11.62;98.46
8653;BME280;4364;52.426;9.424;2024-03-22T13:03:33;100867.75;;;11.52;98.86